sensor_id;sensor_type;location;lat;lon;timestamp;temperature;humidity
4840;DHT22;2434;48.486;7.964;2023-07-13T00:01:14;22.40;37.50
4840;DHT22;2434;48.486;7.964;2023-07-13T00:03:43;22.40;37.40
4840;DHT22;2434;48.486;7.964;2023-07-13T00:06:11;22.40;37.50
4840;DHT22;2434;48.486;7.964;2023-07-13T00:08:40;22.30;37.30
4840;DHT22;2434;48.486;7.964;2023-07-13T00:11:10;22.30;38.40
4840;DHT22;2434;48.486;7.964;2023-07-13T00:13:38;22.40;39.50
4840;DHT22;2434;48.486;7.964;2023-07-13T00:16:07;22.40;38.50
4840;DHT22;2434;48.486;7.964;2023-07-13T00:18:36;22.40;38.10
4840;DHT22;2434;48.486;7.964;2023-07-13T00:21:05;22.30;40.70
4840;DHT22;2434;48.486;7.964;2023-07-13T00:23:34;22.40;40.90
4840;DHT22;2434;48.486;7.964;2023-07-13T00:26:05;22.40;40.40
4840;DHT22;2434;48.486;7.964;2023-07-13T00:28:35;22.40;40.00
4840;DHT22;2434;48.486;7.964;2023-07-13T00:31:04;22.40;40.30
4840;DHT22;2434;48.486;7.964;2023-07-13T00:33:35;22.30;40.10
4840;DHT22;2434;48.486;7.964;2023-07-13T00:36:04;22.30;40.00
4840;DHT22;2434;48.486;7.964;2023-07-13T00:38:32;22.30;40.50
4840;DHT22;2434;48.486;7.964;2023-07-13T00:41:01;22.30;41.20
4840;DHT22;2434;48.486;7.964;2023-07-13T00:43:31;22.30;42.50
4840;DHT22;2434;48.486;7.964;2023-07-13T00:46:17;22.30;42.50
4840;DHT22;2434;48.486;7.964;2023-07-13T00:48:48;22.30;42.60
4840;DHT22;2434;48.486;7.964;2023-07-13T00:51:21;22.30;42.20
4840;DHT22;2434;48.486;7.964;2023-07-13T00:53:50;22.30;41.70
4840;DHT22;2434;48.486;7.964;2023-07-13T00:56:22;22.30;42.60
4840;DHT22;2434;48.486;7.964;2023-07-13T00:58:50;22.20;41.00
4840;DHT22;2434;48.486;7.964;2023-07-13T01:01:20;22.20;40.40
4840;DHT22;2434;48.486;7.964;2023-07-13T01:03:49;22.10;41.60
4840;DHT22;2434;48.486;7.964;2023-07-13T01:06:17;22.10;41.30
4840;DHT22;2434;48.486;7.964;2023-07-13T01:08:46;22.00;41.60
4840;DHT22;2434;48.486;7.964;2023-07-13T01:11:19;22.00;42.20
4840;DHT22;2434;48.486;7.964;2023-07-13T01:13:49;21.90;41.10
4840;DHT22;2434;48.486;7.964;2023-07-13T01:16:26;21.90;41.70
4840;DHT22;2434;48.486;7.964;2023-07-13T01:18:55;21.80;41.60
4840;DHT22;2434;48.486;7.964;2023-07-13T01:21:29;21.80;40.10
4840;DHT22;2434;48.486;7.964;2023-07-13T01:23:58;21.70;41.10
4840;DHT22;2434;48.486;7.964;2023-07-13T01:26:27;21.60;41.40
4840;DHT22;2434;48.486;7.964;2023-07-13T01:28:55;21.60;42.90
4840;DHT22;2434;48.486;7.964;2023-07-13T01:31:24;21.60;41.90
4840;DHT22;2434;48.486;7.964;2023-07-13T01:33:53;21.50;41.70
4840;DHT22;2434;48.486;7.964;2023-07-13T01:36:22;21.50;41.90
4840;DHT22;2434;48.486;7.964;2023-07-13T01:38:52;21.50;42.50
4840;DHT22;2434;48.486;7.964;2023-07-13T01:41:20;21.40;41.90
4840;DHT22;2434;48.486;7.964;2023-07-13T01:43:48;21.30;41.40
4840;DHT22;2434;48.486;7.964;2023-07-13T01:46:17;21.20;41.10
4840;DHT22;2434;48.486;7.964;2023-07-13T01:48:50;21.20;41.90
4840;DHT22;2434;48.486;7.964;2023-07-13T01:51:19;21.20;42.60
4840;DHT22;2434;48.486;7.964;2023-07-13T01:53:48;21.20;42.30
4840;DHT22;2434;48.486;7.964;2023-07-13T01:56:18;21.20;41.50
4840;DHT22;2434;48.486;7.964;2023-07-13T01:58:47;21.10;41.10
4840;DHT22;2434;48.486;7.964;2023-07-13T02:01:16;21.00;40.60
4840;DHT22;2434;48.486;7.964;2023-07-13T02:03:44;21.00;40.60
4840;DHT22;2434;48.486;7.964;2023-07-13T02:06:13;20.90;42.40
4840;DHT22;2434;48.486;7.964;2023-07-13T02:08:41;20.80;42.20
4840;DHT22;2434;48.486;7.964;2023-07-13T02:11:10;20.90;43.10
4840;DHT22;2434;48.486;7.964;2023-07-13T02:13:41;20.80;43.30
4840;DHT22;2434;48.486;7.964;2023-07-13T02:16:09;20.80;43.80
4840;DHT22;2434;48.486;7.964;2023-07-13T02:18:38;20.90;44.60
4840;DHT22;2434;48.486;7.964;2023-07-13T02:21:07;20.80;44.10
4840;DHT22;2434;48.486;7.964;2023-07-13T02:23:35;20.80;43.50
4840;DHT22;2434;48.486;7.964;2023-07-13T02:26:04;20.80;44.50
4840;DHT22;2434;48.486;7.964;2023-07-13T02:28:32;20.70;43.60
4840;DHT22;2434;48.486;7.964;2023-07-13T02:31:06;20.70;43.60
4840;DHT22;2434;48.486;7.964;2023-07-13T02:33:36;20.50;43.40
4840;DHT22;2434;48.486;7.964;2023-07-13T02:36:04;20.50;44.00
4840;DHT22;2434;48.486;7.964;2023-07-13T02:38:34;20.50;44.50
4840;DHT22;2434;48.486;7.964;2023-07-13T02:41:03;20.50;45.20
4840;DHT22;2434;48.486;7.964;2023-07-13T02:43:31;20.50;45.90
4840;DHT22;2434;48.486;7.964;2023-07-13T02:46:01;20.40;45.60
4840;DHT22;2434;48.486;7.964;2023-07-13T02:48:38;20.40;45.20
4840;DHT22;2434;48.486;7.964;2023-07-13T02:51:07;20.30;45.30
4840;DHT22;2434;48.486;7.964;2023-07-13T02:53:35;20.30;44.60
4840;DHT22;2434;48.486;7.964;2023-07-13T02:56:04;20.20;44.10
4840;DHT22;2434;48.486;7.964;2023-07-13T02:58:33;20.20;44.40
4840;DHT22;2434;48.486;7.964;2023-07-13T03:01:07;20.10;44.70
4840;DHT22;2434;48.486;7.964;2023-07-13T03:03:37;20.00;45.00
4840;DHT22;2434;48.486;7.964;2023-07-13T03:06:06;20.00;45.80
4840;DHT22;2434;48.486;7.964;2023-07-13T03:08:44;20.00;45.30
4840;DHT22;2434;48.486;7.964;2023-07-13T03:11:15;19.90;45.30
4840;DHT22;2434;48.486;7.964;2023-07-13T03:13:47;19.90;45.70
4840;DHT22;2434;48.486;7.964;2023-07-13T03:16:16;19.80;46.20
4840;DHT22;2434;48.486;7.964;2023-07-13T03:18:49;19.70;46.40
4840;DHT22;2434;48.486;7.964;2023-07-13T03:21:18;19.70;46.80
4840;DHT22;2434;48.486;7.964;2023-07-13T03:23:47;19.70;47.10
4840;DHT22;2434;48.486;7.964;2023-07-13T03:26:17;19.70;46.70
4840;DHT22;2434;48.486;7.964;2023-07-13T03:28:47;19.70;46.60
4840;DHT22;2434;48.486;7.964;2023-07-13T03:31:22;19.60;45.60
4840;DHT22;2434;48.486;7.964;2023-07-13T03:33:53;19.60;46.00
4840;DHT22;2434;48.486;7.964;2023-07-13T03:36:22;19.60;46.80
4840;DHT22;2434;48.486;7.964;2023-07-13T03:38:56;19.50;46.30
4840;DHT22;2434;48.486;7.964;2023-07-13T03:41:31;19.50;46.80
4840;DHT22;2434;48.486;7.964;2023-07-13T03:43:59;19.40;47.10
4840;DHT22;2434;48.486;7.964;2023-07-13T03:46:28;19.40;46.70
4840;DHT22;2434;48.486;7.964;2023-07-13T03:48:58;19.40;46.90
4840;DHT22;2434;48.486;7.964;2023-07-13T03:51:26;19.40;47.80
4840;DHT22;2434;48.486;7.964;2023-07-13T03:53:54;19.30;47.30
4840;DHT22;2434;48.486;7.964;2023-07-13T03:56:23;19.40;47.80
4840;DHT22;2434;48.486;7.964;2023-07-13T03:58:51;19.30;47.30
4840;DHT22;2434;48.486;7.964;2023-07-13T04:01:23;19.20;47.50
4840;DHT22;2434;48.486;7.964;2023-07-13T04:03:52;19.20;47.90
4840;DHT22;2434;48.486;7.964;2023-07-13T04:06:26;19.20;48.30
4840;DHT22;2434;48.486;7.964;2023-07-13T04:08:57;19.10;47.90
4840;DHT22;2434;48.486;7.964;2023-07-13T04:11:27;19.10;48.20
4840;DHT22;2434;48.486;7.964;2023-07-13T04:13:56;19.10;48.00
4840;DHT22;2434;48.486;7.964;2023-07-13T04:16:25;19.10;47.60
4840;DHT22;2434;48.486;7.964;2023-07-13T04:18:54;19.00;48.70
4840;DHT22;2434;48.486;7.964;2023-07-13T04:21:30;19.00;48.70
4840;DHT22;2434;48.486;7.964;2023-07-13T04:23:58;19.00;48.80
4840;DHT22;2434;48.486;7.964;2023-07-13T04:26:27;19.00;49.30
4840;DHT22;2434;48.486;7.964;2023-07-13T04:28:55;19.00;49.70
4840;DHT22;2434;48.486;7.964;2023-07-13T04:31:24;19.00;49.50
4840;DHT22;2434;48.486;7.964;2023-07-13T04:33:52;19.00;50.20
4840;DHT22;2434;48.486;7.964;2023-07-13T04:36:21;19.00;49.80
4840;DHT22;2434;48.486;7.964;2023-07-13T04:38:51;18.90;49.70
4840;DHT22;2434;48.486;7.964;2023-07-13T04:41:21;19.00;49.30
4840;DHT22;2434;48.486;7.964;2023-07-13T04:43:49;18.90;49.40
4840;DHT22;2434;48.486;7.964;2023-07-13T04:46:20;18.90;49.40
4840;DHT22;2434;48.486;7.964;2023-07-13T04:48:49;19.00;50.10
4840;DHT22;2434;48.486;7.964;2023-07-13T04:51:17;19.00;50.40
4840;DHT22;2434;48.486;7.964;2023-07-13T04:53:46;19.00;51.20
4840;DHT22;2434;48.486;7.964;2023-07-13T04:56:15;19.00;51.60
4840;DHT22;2434;48.486;7.964;2023-07-13T04:58:44;19.00;51.60
4840;DHT22;2434;48.486;7.964;2023-07-13T05:01:12;19.00;51.60
4840;DHT22;2434;48.486;7.964;2023-07-13T05:03:41;19.00;50.90
4840;DHT22;2434;48.486;7.964;2023-07-13T05:06:09;19.00;50.70
4840;DHT22;2434;48.486;7.964;2023-07-13T05:08:38;19.00;50.80
4840;DHT22;2434;48.486;7.964;2023-07-13T05:11:06;19.10;52.00
4840;DHT22;2434;48.486;7.964;2023-07-13T05:13:36;19.10;52.20
4840;DHT22;2434;48.486;7.964;2023-07-13T05:16:05;19.10;50.50
4840;DHT22;2434;48.486;7.964;2023-07-13T05:18:35;19.00;50.10
4840;DHT22;2434;48.486;7.964;2023-07-13T05:21:10;19.00;50.90
4840;DHT22;2434;48.486;7.964;2023-07-13T05:23:39;19.00;50.70
4840;DHT22;2434;48.486;7.964;2023-07-13T05:26:08;19.00;51.80
4840;DHT22;2434;48.486;7.964;2023-07-13T05:28:38;19.00;51.40
4840;DHT22;2434;48.486;7.964;2023-07-13T05:31:07;19.00;51.10
4840;DHT22;2434;48.486;7.964;2023-07-13T05:33:36;19.10;51.70
4840;DHT22;2434;48.486;7.964;2023-07-13T05:36:04;19.10;53.20
4840;DHT22;2434;48.486;7.964;2023-07-13T05:38:34;19.20;52.60
4840;DHT22;2434;48.486;7.964;2023-07-13T05:41:02;19.20;53.30
4840;DHT22;2434;48.486;7.964;2023-07-13T05:43:32;19.20;53.30
4840;DHT22;2434;48.486;7.964;2023-07-13T05:46:02;19.20;51.80
4840;DHT22;2434;48.486;7.964;2023-07-13T05:48:31;19.30;52.20
4840;DHT22;2434;48.486;7.964;2023-07-13T05:51:00;19.30;51.30
4840;DHT22;2434;48.486;7.964;2023-07-13T05:53:29;19.40;52.20
4840;DHT22;2434;48.486;7.964;2023-07-13T05:55:57;19.40;53.60
4840;DHT22;2434;48.486;7.964;2023-07-13T05:58:28;19.40;53.60
4840;DHT22;2434;48.486;7.964;2023-07-13T06:01:03;19.40;52.00
4840;DHT22;2434;48.486;7.964;2023-07-13T06:03:32;19.40;50.20
4840;DHT22;2434;48.486;7.964;2023-07-13T06:06:00;19.50;49.40
4840;DHT22;2434;48.486;7.964;2023-07-13T06:08:28;19.50;49.30
4840;DHT22;2434;48.486;7.964;2023-07-13T06:11:02;19.50;48.40
4840;DHT22;2434;48.486;7.964;2023-07-13T06:13:31;19.60;48.10
4840;DHT22;2434;48.486;7.964;2023-07-13T06:16:01;19.60;47.90
4840;DHT22;2434;48.486;7.964;2023-07-13T06:18:32;19.60;47.00
4840;DHT22;2434;48.486;7.964;2023-07-13T06:21:00;19.60;47.50
4840;DHT22;2434;48.486;7.964;2023-07-13T06:23:29;19.70;46.50
4840;DHT22;2434;48.486;7.964;2023-07-13T06:25:57;19.70;46.10
4840;DHT22;2434;48.486;7.964;2023-07-13T06:28:25;19.70;46.20
4840;DHT22;2434;48.486;7.964;2023-07-13T06:30:53;19.70;46.40
4840;DHT22;2434;48.486;7.964;2023-07-13T06:33:23;19.70;46.10
4840;DHT22;2434;48.486;7.964;2023-07-13T06:35:51;19.70;46.30
4840;DHT22;2434;48.486;7.964;2023-07-13T06:38:20;19.80;46.90
4840;DHT22;2434;48.486;7.964;2023-07-13T06:40:48;19.80;47.00
4840;DHT22;2434;48.486;7.964;2023-07-13T06:43:16;19.90;47.60
4840;DHT22;2434;48.486;7.964;2023-07-13T06:45:46;19.90;46.50
4840;DHT22;2434;48.486;7.964;2023-07-13T06:48:17;19.90;46.30
4840;DHT22;2434;48.486;7.964;2023-07-13T06:50:48;20.00;46.20
4840;DHT22;2434;48.486;7.964;2023-07-13T06:53:18;20.00;45.80
4840;DHT22;2434;48.486;7.964;2023-07-13T06:55:47;20.00;45.60
4840;DHT22;2434;48.486;7.964;2023-07-13T06:58:16;20.00;45.00
4840;DHT22;2434;48.486;7.964;2023-07-13T07:00:45;20.00;44.90
4840;DHT22;2434;48.486;7.964;2023-07-13T07:03:13;20.10;44.20
4840;DHT22;2434;48.486;7.964;2023-07-13T07:05:42;20.10;44.50
4840;DHT22;2434;48.486;7.964;2023-07-13T07:08:11;20.10;44.80
4840;DHT22;2434;48.486;7.964;2023-07-13T07:10:40;20.20;45.40
4840;DHT22;2434;48.486;7.964;2023-07-13T07:13:09;20.20;44.80
4840;DHT22;2434;48.486;7.964;2023-07-13T07:15:37;20.20;45.00
4840;DHT22;2434;48.486;7.964;2023-07-13T07:18:05;20.30;45.70
4840;DHT22;2434;48.486;7.964;2023-07-13T07:20:34;20.40;45.00
4840;DHT22;2434;48.486;7.964;2023-07-13T07:23:02;20.40;44.00
4840;DHT22;2434;48.486;7.964;2023-07-13T07:25:32;20.40;43.00
4840;DHT22;2434;48.486;7.964;2023-07-13T07:28:04;20.50;43.20
4840;DHT22;2434;48.486;7.964;2023-07-13T07:30:35;20.50;43.40
4840;DHT22;2434;48.486;7.964;2023-07-13T07:33:06;20.60;42.90
4840;DHT22;2434;48.486;7.964;2023-07-13T07:35:34;20.60;41.90
4840;DHT22;2434;48.486;7.964;2023-07-13T07:38:22;20.60;41.90
4840;DHT22;2434;48.486;7.964;2023-07-13T07:40:53;20.70;41.70
4840;DHT22;2434;48.486;7.964;2023-07-13T07:43:24;20.80;40.60
4840;DHT22;2434;48.486;7.964;2023-07-13T07:45:52;20.80;40.70
4840;DHT22;2434;48.486;7.964;2023-07-13T07:48:21;20.80;40.00
4840;DHT22;2434;48.486;7.964;2023-07-13T07:50:49;20.90;43.20
4840;DHT22;2434;48.486;7.964;2023-07-13T07:53:17;21.00;42.20
4840;DHT22;2434;48.486;7.964;2023-07-13T07:55:45;21.00;40.50
4840;DHT22;2434;48.486;7.964;2023-07-13T07:58:18;21.00;39.50
4840;DHT22;2434;48.486;7.964;2023-07-13T08:00:49;21.00;39.70
4840;DHT22;2434;48.486;7.964;2023-07-13T08:03:20;21.20;41.20
4840;DHT22;2434;48.486;7.964;2023-07-13T08:05:52;21.40;36.70
4840;DHT22;2434;48.486;7.964;2023-07-13T08:08:41;21.60;35.30
4840;DHT22;2434;48.486;7.964;2023-07-13T08:11:09;21.50;36.30
4840;DHT22;2434;48.486;7.964;2023-07-13T08:13:42;21.50;35.20
4840;DHT22;2434;48.486;7.964;2023-07-13T08:16:10;21.70;36.80
4840;DHT22;2434;48.486;7.964;2023-07-13T08:18:39;21.80;38.50
4840;DHT22;2434;48.486;7.964;2023-07-13T08:21:08;21.80;38.80
4840;DHT22;2434;48.486;7.964;2023-07-13T08:23:37;21.80;37.00
4840;DHT22;2434;48.486;7.964;2023-07-13T08:26:05;21.90;34.90
4840;DHT22;2434;48.486;7.964;2023-07-13T08:28:34;21.90;34.10
4840;DHT22;2434;48.486;7.964;2023-07-13T08:31:05;22.00;32.70
4840;DHT22;2434;48.486;7.964;2023-07-13T08:33:36;22.00;34.50
4840;DHT22;2434;48.486;7.964;2023-07-13T08:36:05;22.00;34.80
4840;DHT22;2434;48.486;7.964;2023-07-13T08:38:33;22.00;33.80
4840;DHT22;2434;48.486;7.964;2023-07-13T08:41:12;22.00;30.40
4840;DHT22;2434;48.486;7.964;2023-07-13T08:43:42;22.00;31.40
4840;DHT22;2434;48.486;7.964;2023-07-13T08:46:18;22.00;32.50
4840;DHT22;2434;48.486;7.964;2023-07-13T08:48:50;22.00;32.80
4840;DHT22;2434;48.486;7.964;2023-07-13T08:51:35;22.20;31.60
4840;DHT22;2434;48.486;7.964;2023-07-13T08:54:14;22.30;33.20
4840;DHT22;2434;48.486;7.964;2023-07-13T08:56:44;22.30;31.40
4840;DHT22;2434;48.486;7.964;2023-07-13T08:59:15;22.30;31.20
4840;DHT22;2434;48.486;7.964;2023-07-13T09:02:00;22.40;34.10
4840;DHT22;2434;48.486;7.964;2023-07-13T09:04:36;22.50;31.50
4840;DHT22;2434;48.486;7.964;2023-07-13T09:07:13;22.50;30.50
4840;DHT22;2434;48.486;7.964;2023-07-13T09:09:52;22.50;30.30
4840;DHT22;2434;48.486;7.964;2023-07-13T09:12:27;22.50;30.30
4840;DHT22;2434;48.486;7.964;2023-07-13T09:15:02;22.70;29.00
4840;DHT22;2434;48.486;7.964;2023-07-13T09:17:35;22.90;28.80
4840;DHT22;2434;48.486;7.964;2023-07-13T09:20:16;22.90;27.60
4840;DHT22;2434;48.486;7.964;2023-07-13T09:22:47;23.10;28.10
4840;DHT22;2434;48.486;7.964;2023-07-13T09:25:24;23.00;26.60
4840;DHT22;2434;48.486;7.964;2023-07-13T09:27:58;22.90;27.30
4840;DHT22;2434;48.486;7.964;2023-07-13T09:30:34;22.90;27.90
4840;DHT22;2434;48.486;7.964;2023-07-13T09:33:07;22.90;28.00
4840;DHT22;2434;48.486;7.964;2023-07-13T09:35:36;23.00;29.00
4840;DHT22;2434;48.486;7.964;2023-07-13T09:38:11;23.00;28.10
4840;DHT22;2434;48.486;7.964;2023-07-13T09:43:36;22.90;26.90
4840;DHT22;2434;48.486;7.964;2023-07-13T09:46:20;22.90;27.90
4840;DHT22;2434;48.486;7.964;2023-07-13T09:48:50;22.90;27.60
4840;DHT22;2434;48.486;7.964;2023-07-13T09:51:18;23.00;27.50
4840;DHT22;2434;48.486;7.964;2023-07-13T09:53:46;23.00;27.70
4840;DHT22;2434;48.486;7.964;2023-07-13T09:56:22;23.10;27.40
4840;DHT22;2434;48.486;7.964;2023-07-13T09:58:51;23.30;30.00
4840;DHT22;2434;48.486;7.964;2023-07-13T10:01:32;23.40;30.30
4840;DHT22;2434;48.486;7.964;2023-07-13T10:04:10;23.40;27.40
4840;DHT22;2434;48.486;7.964;2023-07-13T10:06:40;23.80;25.10
4840;DHT22;2434;48.486;7.964;2023-07-13T10:09:13;23.80;24.70
4840;DHT22;2434;48.486;7.964;2023-07-13T10:11:43;23.70;24.90
4840;DHT22;2434;48.486;7.964;2023-07-13T10:14:13;23.70;24.90
4840;DHT22;2434;48.486;7.964;2023-07-13T10:16:44;23.70;27.30
4840;DHT22;2434;48.486;7.964;2023-07-13T10:19:17;23.80;26.00
4840;DHT22;2434;48.486;7.964;2023-07-13T10:21:52;23.70;25.80
4840;DHT22;2434;48.486;7.964;2023-07-13T10:24:23;23.80;24.90
4840;DHT22;2434;48.486;7.964;2023-07-13T10:26:55;24.10;27.30
4840;DHT22;2434;48.486;7.964;2023-07-13T10:29:27;24.40;23.20
4840;DHT22;2434;48.486;7.964;2023-07-13T10:31:56;24.70;22.60
4840;DHT22;2434;48.486;7.964;2023-07-13T10:34:26;25.00;24.20
4840;DHT22;2434;48.486;7.964;2023-07-13T10:36:55;25.40;23.00
4840;DHT22;2434;48.486;7.964;2023-07-13T10:39:27;25.40;22.00
4840;DHT22;2434;48.486;7.964;2023-07-13T10:41:58;25.50;23.00
4840;DHT22;2434;48.486;7.964;2023-07-13T10:44:28;25.40;20.20
4840;DHT22;2434;48.486;7.964;2023-07-13T10:46:59;25.40;19.50
4840;DHT22;2434;48.486;7.964;2023-07-13T10:49:31;25.40;20.30
4840;DHT22;2434;48.486;7.964;2023-07-13T10:51:59;25.30;20.20
4840;DHT22;2434;48.486;7.964;2023-07-13T10:54:31;25.10;20.90
4840;DHT22;2434;48.486;7.964;2023-07-13T10:57:16;24.90;21.20
4840;DHT22;2434;48.486;7.964;2023-07-13T11:00:10;24.70;21.70
4840;DHT22;2434;48.486;7.964;2023-07-13T11:02:41;24.70;21.70
4840;DHT22;2434;48.486;7.964;2023-07-13T11:05:27;24.60;22.40
4840;DHT22;2434;48.486;7.964;2023-07-13T11:08:04;24.60;23.10
4840;DHT22;2434;48.486;7.964;2023-07-13T11:10:48;24.60;21.80
4840;DHT22;2434;48.486;7.964;2023-07-13T11:13:35;24.60;22.20
4840;DHT22;2434;48.486;7.964;2023-07-13T11:16:13;24.70;22.40
4840;DHT22;2434;48.486;7.964;2023-07-13T11:18:44;24.90;21.70
4840;DHT22;2434;48.486;7.964;2023-07-13T11:21:16;25.00;22.70
4840;DHT22;2434;48.486;7.964;2023-07-13T11:24:03;25.10;21.40
4840;DHT22;2434;48.486;7.964;2023-07-13T11:26:43;25.10;23.10
4840;DHT22;2434;48.486;7.964;2023-07-13T11:29:25;25.10;23.60
4840;DHT22;2434;48.486;7.964;2023-07-13T11:31:56;24.90;24.60
4840;DHT22;2434;48.486;7.964;2023-07-13T11:34:28;24.80;24.60
4840;DHT22;2434;48.486;7.964;2023-07-13T11:37:01;24.80;24.30
4840;DHT22;2434;48.486;7.964;2023-07-13T11:39:31;24.70;24.90
4840;DHT22;2434;48.486;7.964;2023-07-13T11:42:02;24.70;25.40
4840;DHT22;2434;48.486;7.964;2023-07-13T11:44:33;24.70;24.40
4840;DHT22;2434;48.486;7.964;2023-07-13T11:47:09;24.70;24.90
4840;DHT22;2434;48.486;7.964;2023-07-13T11:49:45;24.70;25.00
4840;DHT22;2434;48.486;7.964;2023-07-13T11:52:18;24.80;25.70
4840;DHT22;2434;48.486;7.964;2023-07-13T11:54:49;24.80;24.60
4840;DHT22;2434;48.486;7.964;2023-07-13T11:57:25;24.80;24.80
4840;DHT22;2434;48.486;7.964;2023-07-13T11:59:55;24.80;25.60
4840;DHT22;2434;48.486;7.964;2023-07-13T12:02:29;24.80;25.90
4840;DHT22;2434;48.486;7.964;2023-07-13T12:04:59;24.90;25.70
4840;DHT22;2434;48.486;7.964;2023-07-13T12:07:32;24.80;24.90
4840;DHT22;2434;48.486;7.964;2023-07-13T12:10:01;25.00;25.60
4840;DHT22;2434;48.486;7.964;2023-07-13T12:12:29;25.10;25.10
4840;DHT22;2434;48.486;7.964;2023-07-13T12:14:58;25.20;22.50
4840;DHT22;2434;48.486;7.964;2023-07-13T12:17:28;25.20;22.30
4840;DHT22;2434;48.486;7.964;2023-07-13T12:19:57;25.30;23.70
4840;DHT22;2434;48.486;7.964;2023-07-13T12:22:25;25.30;22.00
4840;DHT22;2434;48.486;7.964;2023-07-13T12:24:56;25.30;22.10
4840;DHT22;2434;48.486;7.964;2023-07-13T12:27:26;25.30;21.10
4840;DHT22;2434;48.486;7.964;2023-07-13T12:29:59;25.30;21.30
4840;DHT22;2434;48.486;7.964;2023-07-13T12:32:28;25.40;23.60
4840;DHT22;2434;48.486;7.964;2023-07-13T12:35:15;25.60;22.10
4840;DHT22;2434;48.486;7.964;2023-07-13T12:37:46;25.70;21.10
4840;DHT22;2434;48.486;7.964;2023-07-13T12:40:17;25.70;21.70
4840;DHT22;2434;48.486;7.964;2023-07-13T12:42:47;25.60;22.70
4840;DHT22;2434;48.486;7.964;2023-07-13T12:45:19;25.60;23.80
4840;DHT22;2434;48.486;7.964;2023-07-13T12:47:49;25.50;24.20
4840;DHT22;2434;48.486;7.964;2023-07-13T12:50:20;25.40;23.00
4840;DHT22;2434;48.486;7.964;2023-07-13T12:52:51;25.40;23.60
4840;DHT22;2434;48.486;7.964;2023-07-13T12:55:22;25.30;23.60
4840;DHT22;2434;48.486;7.964;2023-07-13T12:57:53;25.20;23.20
4840;DHT22;2434;48.486;7.964;2023-07-13T13:00:24;25.20;23.10
4840;DHT22;2434;48.486;7.964;2023-07-13T13:02:54;25.20;23.60
4840;DHT22;2434;48.486;7.964;2023-07-13T13:05:42;25.20;25.30
4840;DHT22;2434;48.486;7.964;2023-07-13T13:08:13;25.30;22.60
4840;DHT22;2434;48.486;7.964;2023-07-13T13:10:42;25.20;23.20
4840;DHT22;2434;48.486;7.964;2023-07-13T13:13:12;25.30;22.40
4840;DHT22;2434;48.486;7.964;2023-07-13T13:15:41;25.30;22.10
4840;DHT22;2434;48.486;7.964;2023-07-13T13:18:15;25.30;22.70
4840;DHT22;2434;48.486;7.964;2023-07-13T13:20:45;25.40;22.40
4840;DHT22;2434;48.486;7.964;2023-07-13T13:23:14;25.50;22.70
4840;DHT22;2434;48.486;7.964;2023-07-13T13:25:49;25.60;26.10
4840;DHT22;2434;48.486;7.964;2023-07-13T13:28:20;25.60;24.40
4840;DHT22;2434;48.486;7.964;2023-07-13T13:30:49;25.60;22.70
4840;DHT22;2434;48.486;7.964;2023-07-13T13:33:21;25.60;21.60
4840;DHT22;2434;48.486;7.964;2023-07-13T13:35:50;25.50;21.90
4840;DHT22;2434;48.486;7.964;2023-07-13T13:38:23;25.50;24.00
4840;DHT22;2434;48.486;7.964;2023-07-13T13:40:53;25.50;21.80
4840;DHT22;2434;48.486;7.964;2023-07-13T13:43:24;25.60;21.80
4840;DHT22;2434;48.486;7.964;2023-07-13T13:45:57;25.50;20.70
4840;DHT22;2434;48.486;7.964;2023-07-13T13:48:30;25.50;19.90
4840;DHT22;2434;48.486;7.964;2023-07-13T13:50:59;25.60;21.10
4840;DHT22;2434;48.486;7.964;2023-07-13T13:53:28;25.70;19.50
4840;DHT22;2434;48.486;7.964;2023-07-13T13:55:57;25.70;20.50
4840;DHT22;2434;48.486;7.964;2023-07-13T13:58:26;25.80;19.70
4840;DHT22;2434;48.486;7.964;2023-07-13T14:00:55;25.90;19.40
4840;DHT22;2434;48.486;7.964;2023-07-13T14:03:23;26.00;19.50
4840;DHT22;2434;48.486;7.964;2023-07-13T14:05:53;26.30;20.50
4840;DHT22;2434;48.486;7.964;2023-07-13T14:08:24;26.50;21.80
4840;DHT22;2434;48.486;7.964;2023-07-13T14:10:54;26.70;19.80
4840;DHT22;2434;48.486;7.964;2023-07-13T14:13:28;27.00;18.80
4840;DHT22;2434;48.486;7.964;2023-07-13T14:15:56;27.10;16.80
4840;DHT22;2434;48.486;7.964;2023-07-13T14:18:26;27.20;18.70
4840;DHT22;2434;48.486;7.964;2023-07-13T14:20:54;27.30;18.90
4840;DHT22;2434;48.486;7.964;2023-07-13T14:23:22;27.30;17.30
4840;DHT22;2434;48.486;7.964;2023-07-13T14:25:50;27.10;17.40
4840;DHT22;2434;48.486;7.964;2023-07-13T14:28:21;26.90;17.50
4840;DHT22;2434;48.486;7.964;2023-07-13T14:30:52;26.80;17.70
4840;DHT22;2434;48.486;7.964;2023-07-13T14:33:21;26.80;16.50
4840;DHT22;2434;48.486;7.964;2023-07-13T14:35:50;26.70;17.00
4840;DHT22;2434;48.486;7.964;2023-07-13T14:38:19;26.60;18.00
4840;DHT22;2434;48.486;7.964;2023-07-13T14:40:48;26.50;17.50
4840;DHT22;2434;48.486;7.964;2023-07-13T14:43:16;26.50;18.70
4840;DHT22;2434;48.486;7.964;2023-07-13T14:45:46;26.40;17.60
4840;DHT22;2434;48.486;7.964;2023-07-13T14:48:19;26.30;17.60
4840;DHT22;2434;48.486;7.964;2023-07-13T14:50:53;26.10;18.10
4840;DHT22;2434;48.486;7.964;2023-07-13T14:53:21;26.10;18.40
4840;DHT22;2434;48.486;7.964;2023-07-13T14:55:49;26.00;18.60
4840;DHT22;2434;48.486;7.964;2023-07-13T14:58:18;25.90;18.00
4840;DHT22;2434;48.486;7.964;2023-07-13T15:00:47;25.80;18.60
4840;DHT22;2434;48.486;7.964;2023-07-13T15:03:22;25.70;19.00
4840;DHT22;2434;48.486;7.964;2023-07-13T15:05:52;25.70;19.50
4840;DHT22;2434;48.486;7.964;2023-07-13T15:08:20;25.80;20.50
4840;DHT22;2434;48.486;7.964;2023-07-13T15:10:48;25.80;20.00
4840;DHT22;2434;48.486;7.964;2023-07-13T15:13:18;25.70;19.70
4840;DHT22;2434;48.486;7.964;2023-07-13T15:15:49;25.70;20.10
4840;DHT22;2434;48.486;7.964;2023-07-13T15:18:21;25.70;20.40
4840;DHT22;2434;48.486;7.964;2023-07-13T15:20:50;25.70;21.20
4840;DHT22;2434;48.486;7.964;2023-07-13T15:23:19;25.70;20.90
4840;DHT22;2434;48.486;7.964;2023-07-13T15:25:47;25.70;19.90
4840;DHT22;2434;48.486;7.964;2023-07-13T15:28:15;25.60;20.10
4840;DHT22;2434;48.486;7.964;2023-07-13T15:30:46;25.60;22.30
4840;DHT22;2434;48.486;7.964;2023-07-13T15:33:16;25.60;20.40
4840;DHT22;2434;48.486;7.964;2023-07-13T15:35:46;25.70;20.20
4840;DHT22;2434;48.486;7.964;2023-07-13T15:38:17;25.70;21.00
4840;DHT22;2434;48.486;7.964;2023-07-13T15:40:46;25.70;22.00
4840;DHT22;2434;48.486;7.964;2023-07-13T15:43:16;25.70;21.30
4840;DHT22;2434;48.486;7.964;2023-07-13T15:45:45;25.70;21.50
4840;DHT22;2434;48.486;7.964;2023-07-13T15:48:17;25.70;20.50
4840;DHT22;2434;48.486;7.964;2023-07-13T15:50:48;25.70;21.30
4840;DHT22;2434;48.486;7.964;2023-07-13T15:53:26;25.70;22.00
4840;DHT22;2434;48.486;7.964;2023-07-13T15:55:57;25.60;21.90
4840;DHT22;2434;48.486;7.964;2023-07-13T15:58:26;25.60;21.80
4840;DHT22;2434;48.486;7.964;2023-07-13T16:00:55;25.60;20.40
4840;DHT22;2434;48.486;7.964;2023-07-13T16:03:24;25.60;19.80
4840;DHT22;2434;48.486;7.964;2023-07-13T16:05:53;25.50;19.70
4840;DHT22;2434;48.486;7.964;2023-07-13T16:08:25;25.50;19.90
4840;DHT22;2434;48.486;7.964;2023-07-13T16:10:55;25.50;20.10
4840;DHT22;2434;48.486;7.964;2023-07-13T16:13:23;25.50;20.40
4840;DHT22;2434;48.486;7.964;2023-07-13T16:15:53;25.50;20.00
4840;DHT22;2434;48.486;7.964;2023-07-13T16:18:24;25.50;19.80
4840;DHT22;2434;48.486;7.964;2023-07-13T16:20:53;25.50;20.00
4840;DHT22;2434;48.486;7.964;2023-07-13T16:23:24;25.50;19.70
4840;DHT22;2434;48.486;7.964;2023-07-13T16:25:52;25.50;20.40
4840;DHT22;2434;48.486;7.964;2023-07-13T16:28:20;25.50;21.70